Time;durP1;ratioP1;P1;durP2;ratioP2;P2;SDS_P1;SDS_P2;PMS_P1;PMS_P2;Temp;Humidity;BMP_temperature;BMP_pressure;BME280_temperature;BME280_humidity;BME280_pressure;Samples;Min_cycle;Max_cycle;Signal;HPM_P1;HPM_P2
2022/03/15 00:00:55;;;;;;;1.35;0.60;;;;;;;0.05;50.29;100890.53;5029655;28;20046;-41
2022/03/15 00:03:22;;;;;;;1.30;0.82;;;;;;;0.00;50.19;100872.50;5018396;28;20506;-41
2022/03/15 00:05:49;;;;;;;1.67;1.17;;;;;;;0.23;49.93;100896.13;5024432;28;20045;-41
2022/03/15 00:08:15;;;;;;;1.38;0.63;;;;;;;0.30;50.08;100888.66;5030893;28;20033;-42
2022/03/15 00:10:42;;;;;;;0.65;0.40;;;;;;;0.40;49.82;100897.44;5011816;28;20044;-44
2022/03/15 00:13:08;;;;;;;0.82;0.35;;;;;;;0.38;49.99;100892.25;5009634;28;20033;-43
2022/03/15 00:15:35;;;;;;;2.65;0.90;;;;;;;0.45;49.71;100903.53;5013505;28;20057;-43
2022/03/15 00:18:03;;;;;;;4.20;2.50;;;;;;;0.45;49.84;100902.66;5039752;28;20057;-41
2022/03/15 00:20:28;;;;;;;4.85;2.17;;;;;;;0.47;50.00;100909.56;5029485;28;20492;-42
2022/03/15 00:22:59;;;;;;;3.70;2.40;;;;;;;0.45;50.10;100915.47;5030259;28;20065;-41
2022/03/15 00:25:25;;;;;;;3.63;2.85;;;;;;;0.30;50.23;100898.03;5030256;28;20041;-42
2022/03/15 00:27:53;;;;;;;3.80;2.38;;;;;;;0.17;50.38;100894.25;5029754;28;20136;-42
2022/03/15 00:30:21;;;;;;;3.47;2.50;;;;;;;0.24;50.50;100919.19;5030313;28;20552;-42
2022/03/15 00:32:48;;;;;;;1.92;1.38;;;;;;;0.16;50.58;100915.53;5029957;28;20127;-42
2022/03/15 00:35:18;;;;;;;2.53;1.63;;;;;;;0.10;51.03;100914.53;5029207;28;20045;-42
2022/03/15 00:37:50;;;;;;;3.15;2.03;;;;;;;0.03;51.51;100926.25;5029687;28;20053;-42
2022/03/15 00:40:17;;;;;;;6.03;3.85;;;;;;;-0.01;51.79;100927.88;5030093;28;20041;-42
2022/03/15 00:42:46;;;;;;;8.10;6.13;;;;;;;-0.02;51.61;100927.81;5027783;28;20064;-41
2022/03/15 00:45:14;;;;;;;7.13;5.10;;;;;;;-0.05;51.61;100932.84;5012840;28;20088;-41
2022/03/15 00:47:40;;;;;;;5.07;2.50;;;;;;;-0.10;51.93;100934.41;5020478;28;20048;-41
2022/03/15 00:50:06;;;;;;;3.83;2.40;;;;;;;-0.18;52.19;100929.09;5012698;28;20049;-42
2022/03/15 00:52:32;;;;;;;3.83;2.30;;;;;;;-0.18;52.35;100936.75;5033432;28;20037;-41
2022/03/15 00:54:58;;;;;;;2.50;1.20;;;;;;;-0.22;52.17;100934.94;5032439;28;20432;-42
2022/03/15 00:57:24;;;;;;;3.03;1.60;;;;;;;-0.41;52.29;100912.19;5033343;28;20512;-40
2022/03/15 00:59:50;;;;;;;1.85;1.20;;;;;;;-0.26;52.26;100938.19;5032744;28;20044;-40
2022/03/15 01:02:17;;;;;;;1.50;0.80;;;;;;;-0.28;52.39;100944.09;5015457;28;20053;-41
2022/03/15 01:04:43;;;;;;;1.65;0.90;;;;;;;-0.31;52.25;100946.53;5033872;28;20045;-41
2022/03/15 01:07:12;;;;;;;1.20;0.90;;;;;;;-0.35;52.40;100943.03;5034217;28;20143;-42
2022/03/15 01:09:39;;;;;;;1.35;0.85;;;;;;;-0.34;52.81;100946.47;5033802;28;20045;-42
2022/03/15 01:12:06;;;;;;;1.42;0.82;;;;;;;-0.39;52.77;100948.91;5005768;28;20061;-42
2022/03/15 01:14:33;;;;;;;2.08;0.80;;;;;;;-0.39;52.34;100960.78;5032294;28;20048;-41
2022/03/15 01:17:00;;;;;;;1.38;0.70;;;;;;;-0.45;52.54;100958.91;5033762;28;20579;-45
2022/03/15 01:19:26;;;;;;;1.10;0.55;;;;;;;-0.57;52.81;100946.63;5033835;28;20080;-41
2022/03/15 01:21:52;;;;;;;1.23;0.50;;;;;;;-0.49;52.35;100962.22;5014549;28;20041;-42
2022/03/15 01:24:19;;;;;;;1.02;0.60;;;;;;;-0.50;51.88;100965.59;5033779;28;20118;-41
2022/03/15 01:26:46;;;;;;;2.05;0.68;;;;;;;-0.54;51.93;100967.19;5032905;28;20088;-41
2022/03/15 01:29:11;;;;;;;0.65;0.40;;;;;;;-0.59;51.64;100970.41;5032010;28;20068;-41
2022/03/15 01:31:38;;;;;;;1.40;0.60;;;;;;;-0.63;51.51;100974.53;5015116;28;20143;-43
2022/03/15 01:34:04;;;;;;;1.10;0.57;;;;;;;-0.64;51.67;100969.41;5033399;28;20041;-41
2022/03/15 01:36:32;;;;;;;1.38;0.45;;;;;;;-0.65;51.08;100975.31;5033488;28;20620;-42
2022/03/15 01:38:58;;;;;;;1.13;0.70;;;;;;;-0.68;51.01;100978.63;5015623;28;20136;-41
2022/03/15 01:41:25;;;;;;;1.35;0.40;;;;;;;-0.73;50.84;100969.13;5014201;28;20041;-41
2022/03/15 01:43:51;;;;;;;0.88;0.40;;;;;;;-0.76;50.99;100977.53;5032922;28;20048;-42
2022/03/15 01:46:17;;;;;;;0.40;0.30;;;;;;;-0.78;50.59;100981.72;5032893;28;20033;-41
2022/03/15 01:48:43;;;;;;;0.95;0.50;;;;;;;-0.80;50.61;100982.50;5032748;28;20127;-42
2022/03/15 01:51:10;;;;;;;0.98;0.30;;;;;;;-0.80;50.35;100985.06;5032510;28;20065;-41
2022/03/15 01:53:37;;;;;;;2.28;0.70;;;;;;;-0.80;50.26;100987.59;5018484;28;20049;-42
2022/03/15 01:56:05;;;;;;;1.33;0.65;;;;;;;-0.82;50.26;100989.22;5018748;28;20111;-42
2022/03/15 01:58:30;;;;;;;0.77;0.52;;;;;;;-0.97;50.10;100970.06;5032836;28;20063;-42
2022/03/15 02:01:00;;;;;;;0.93;0.60;;;;;;;-0.91;50.10;100988.13;5030189;28;20044;-41
2022/03/15 02:03:26;;;;;;;0.70;0.57;;;;;;;-0.94;50.15;100990.56;5032681;28;20428;-43
2022/03/15 02:05:51;;;;;;;1.25;0.55;;;;;;;-0.94;50.18;100992.25;5032419;28;20088;-43
2022/03/15 02:08:17;;;;;;;1.23;0.73;;;;;;;-0.94;49.90;100995.66;5031610;28;20037;-42
2022/03/15 02:10:43;;;;;;;0.80;0.50;;;;;;;-0.94;50.11;101000.78;5031058;28;20041;-41
2022/03/15 02:13:10;;;;;;;1.88;0.73;;;;;;;-0.94;50.14;101002.47;5032586;28;20060;-40
2022/03/15 02:15:37;;;;;;;0.60;0.57;;;;;;;-0.95;49.89;100999.06;5031096;28;20037;-42
2022/03/15 02:18:04;;;;;;;3.67;0.60;;;;;;;-0.97;49.59;101007.47;5032498;28;20041;-41
2022/03/15 02:20:30;;;;;;;0.63;0.40;;;;;;;-0.99;49.45;101011.66;5031568;28;20092;-41
2022/03/15 02:22:57;;;;;;;0.80;0.40;;;;;;;-1.04;49.52;101006.41;5032264;28;20091;-41
2022/03/15 02:25:24;;;;;;;1.05;0.47;;;;;;;-1.01;49.42;101021.84;5030920;28;20137;-42
2022/03/15 02:27:51;;;;;;;0.85;0.50;;;;;;;-1.12;49.56;101000.19;5015916;28;20041;-41
2022/03/15 02:30:18;;;;;;;1.20;0.63;;;;;;;-1.06;49.56;101023.38;5031127;28;20041;-41
2022/03/15 02:32:47;;;;;;;2.20;0.60;;;;;;;-1.06;49.57;101025.03;5032506;28;20087;-41
2022/03/15 02:35:13;;;;;;;1.25;0.77;;;;;;;-1.10;49.11;101021.50;5031257;28;20144;-41
2022/03/15 02:37:39;;;;;;;1.05;0.77;;;;;;;-1.12;49.38;101015.50;5033381;28;20520;-41
2022/03/15 02:40:06;;;;;;;0.88;0.70;;;;;;;-1.14;49.38;101022.22;5041484;28;20065;-42
2022/03/15 02:42:32;;;;;;;0.82;0.40;;;;;;;-1.14;49.25;101019.66;5015370;28;20168;-42
2022/03/15 02:44:58;;;;;;;0.90;0.50;;;;;;;-1.14;48.96;101019.66;5032099;28;20048;-41
2022/03/15 02:47:25;;;;;;;1.38;0.60;;;;;;;-1.27;49.02;101006.44;5023683;28;20584;-41
2022/03/15 02:49:51;;;;;;;0.68;0.50;;;;;;;-1.23;49.08;101034.66;5012089;28;20038;-41
2022/03/15 02:52:17;;;;;;;1.30;0.60;;;;;;;-1.24;49.26;101037.16;5028145;28;20041;-41
2022/03/15 02:54:42;;;;;;;1.17;0.63;;;;;;;-1.39;49.18;101010.31;5032102;28;20037;-42
2022/03/15 02:57:10;;;;;;;1.58;0.80;;;;;;;-1.28;49.06;101033.66;5017300;28;20042;-41
2022/03/15 02:59:39;;;;;;;1.77;0.73;;;;;;;-1.31;49.15;101036.09;5012022;28;20042;-42
2022/03/15 03:02:05;;;;;;;1.58;0.65;;;;;;;-1.34;49.37;101039.41;5027214;28;20472;-42
2022/03/15 03:04:31;;;;;;;1.85;0.60;;;;;;;-1.45;49.29;101025.41;5031120;28;20425;-41
2022/03/15 03:07:01;;;;;;;1.73;0.70;;;;;;;-1.37;49.46;101048.63;5024774;28;20501;-42
2022/03/15 03:09:28;;;;;;;0.95;0.73;;;;;;;-1.36;49.21;101050.38;5014355;28;20559;-41
2022/03/15 03:11:53;;;;;;;1.15;0.60;;;;;;;-1.40;49.37;101049.38;5030936;28;20030;-42
2022/03/15 03:14:21;;;;;;;1.58;0.55;;;;;;;-1.42;49.31;101056.13;5029459;28;20052;-41
2022/03/15 03:16:47;;;;;;;2.03;0.82;;;;;;;-1.56;49.07;101036.91;5031653;28;20049;-41
2022/03/15 03:19:13;;;;;;;1.13;0.65;;;;;;;-1.45;49.24;101066.19;5031748;28;20052;-41
2022/03/15 03:21:40;;;;;;;1.55;0.55;;;;;;;-1.46;49.01;101067.00;5027534;28;20033;-40
2022/03/15 03:24:06;;;;;;;2.88;0.90;;;;;;;-1.46;49.03;101066.13;5030111;28;20052;-41
2022/03/15 03:26:36;;;;;;;2.42;0.60;;;;;;;-1.49;49.04;101071.16;5029899;28;20029;-42
2022/03/15 03:29:02;;;;;;;2.28;0.80;;;;;;;-1.49;49.04;101072.00;5030194;28;20171;-42
2022/03/15 03:31:30;;;;;;;1.67;0.90;;;;;;;-1.68;49.30;101040.69;5023185;28;20044;-45
2022/03/15 03:33:56;;;;;;;2.58;0.70;;;;;;;-1.48;49.00;101072.88;5024054;28;20049;-40
2022/03/15 03:36:24;;;;;;;1.63;0.77;;;;;;;-1.48;48.80;101078.88;5030816;28;20033;-41
2022/03/15 03:38:52;;;;;;;1.42;0.70;;;;;;;-1.50;49.08;101080.47;5029415;28;20087;-40
2022/03/15 03:41:18;;;;;;;1.30;0.80;;;;;;;-1.51;49.35;101075.31;5030430;28;20599;-41
2022/03/15 03:43:43;;;;;;;2.83;0.70;;;;;;;-1.52;49.19;101076.16;5029465;28;20059;-41
2022/03/15 03:46:10;;;;;;;1.48;0.70;;;;;;;-1.57;49.00;101077.66;5028303;28;20767;-41
2022/03/15 03:48:36;;;;;;;1.88;0.73;;;;;;;-1.55;49.18;101092.19;5020316;28;20103;-41
2022/03/15 03:51:02;;;;;;;6.03;1.10;;;;;;;-1.58;49.28;101089.53;5027912;28;20038;-42
2022/03/15 03:53:28;;;;;;;4.38;0.80;;;;;;;-1.63;49.25;101087.63;5031092;28;20041;-41
2022/03/15 03:55:54;;;;;;;4.53;1.00;;;;;;;-1.58;49.20;101097.19;5028014;28;20428;-41
2022/03/15 03:58:19;;;;;;;4.18;1.02;;;;;;;-1.56;49.01;101102.31;5010064;28;20108;-41
2022/03/15 04:00:45;;;;;;;2.97;0.82;;;;;;;-1.54;49.11;101099.03;5043092;28;20517;-42
2022/03/15 04:03:11;;;;;;;3.85;1.25;;;;;;;-1.50;49.22;101107.66;5026442;28;20508;-41
2022/03/15 04:05:40;;;;;;;6.63;1.10;;;;;;;-1.49;49.15;101101.75;5029599;28;20041;-41
2022/03/15 04:08:06;;;;;;;4.05;1.02;;;;;;;-1.52;49.11;101107.63;5017832;28;20041;-40
2022/03/15 04:10:33;;;;;;;2.95;1.20;;;;;;;-1.56;48.98;101095.53;5029297;28;20061;-41
2022/03/15 04:13:00;;;;;;;2.13;0.85;;;;;;;-1.50;48.98;101107.66;5015127;28;20045;-42
2022/03/15 04:15:26;;;;;;;2.47;0.90;;;;;;;-1.45;49.03;101108.69;5030624;28;20552;-41
2022/03/15 04:17:52;;;;;;;3.78;0.80;;;;;;;-1.43;48.74;101113.06;5028733;28;20064;-40
2022/03/15 04:20:18;;;;;;;3.00;0.77;;;;;;;-1.41;48.73;101107.97;5029737;28;20049;-42
2022/03/15 04:22:44;;;;;;;6.72;0.90;;;;;;;-1.38;48.55;101116.63;5029378;28;20038;-42
2022/03/15 04:25:10;;;;;;;6.68;1.02;;;;;;;-1.52;48.66;101088.91;5032942;28;20152;-40
2022/03/15 04:27:36;;;;;;;2.50;0.80;;;;;;;-1.35;48.65;101113.31;5034000;28;20041;-42
2022/03/15 04:30:04;;;;;;;2.40;0.80;;;;;;;-1.34;48.62;101108.28;5033120;28;20044;-42
2022/03/15 04:32:32;;;;;;;1.20;0.80;;;;;;;-1.30;48.97;101124.56;5034575;28;20103;-41
2022/03/15 04:34:58;;;;;;;4.25;0.80;;;;;;;-1.30;48.50;101119.44;5032774;28;20068;-40
2022/03/15 04:37:23;;;;;;;22.75;2.17;;;;;;;-1.28;48.56;101122.94;5032092;28;20033;-42
2022/03/15 04:39:50;;;;;;;1.95;0.80;;;;;;;-1.32;47.88;101118.53;5033931;28;20132;-42
2022/03/15 04:42:16;;;;;;;2.97;0.80;;;;;;;-1.22;47.80;101129.94;5022357;28;20037;-41
2022/03/15 04:44:43;;;;;;;2.53;0.95;;;;;;;-1.22;48.21;101123.16;5029618;28;20045;-41
2022/03/15 04:47:09;;;;;;;4.10;0.90;;;;;;;-1.24;48.12;101127.31;5033185;28;20041;-41
2022/03/15 04:49:36;;;;;;;6.55;1.48;;;;;;;-1.22;47.93;101127.38;5016199;28;20037;-42
2022/03/15 04:52:02;;;;;;;3.38;1.15;;;;;;;-1.24;47.80;101131.56;5014055;28;20045;-42
2022/03/15 04:54:29;;;;;;;2.25;1.15;;;;;;;-1.23;48.01;101139.28;5014203;28;20045;-41
2022/03/15 04:56:55;;;;;;;3.58;1.02;;;;;;;-1.20;47.62;101136.81;5030156;28;20041;-41
2022/03/15 04:59:21;;;;;;;4.43;0.93;;;;;;;-1.16;47.86;101138.69;5033383;28;20548;-41
2022/03/15 05:01:46;;;;;;;1.67;0.73;;;;;;;-1.11;47.85;101136.31;5031348;28;20057;-42
2022/03/15 05:04:12;;;;;;;3.38;0.90;;;;;;;-1.11;47.82;101132.06;5033125;28;20402;-41
2022/03/15 05:06:39;;;;;;;3.45;1.20;;;;;;;-1.12;47.59;101132.88;5025701;28;20046;-42
2022/03/15 05:09:05;;;;;;;8.75;2.90;;;;;;;-0.98;47.80;101146.13;5031807;28;20048;-42
2022/03/15 05:11:32;;;;;;;4.57;1.50;;;;;;;-0.93;48.04;101142.03;5031805;28;20115;-42
2022/03/15 05:13:58;;;;;;;3.55;1.20;;;;;;;-0.97;47.43;101138.53;5032533;28;20048;-41
2022/03/15 05:16:24;;;;;;;4.30;1.40;;;;;;;-0.86;47.52;101147.44;5031938;28;20049;-41
2022/03/15 05:18:52;;;;;;;9.10;1.70;;;;;;;-0.80;47.77;101157.00;5014756;28;20153;-43
2022/03/15 05:21:18;;;;;;;5.75;1.33;;;;;;;-0.76;47.63;101151.16;5014270;28;20041;-42
2022/03/15 05:23:45;;;;;;;7.05;1.33;;;;;;;-0.86;47.51;101133.78;5011633;28;20053;-42
2022/03/15 05:26:11;;;;;;;4.32;1.60;;;;;;;-0.72;47.52;101153.00;5030277;28;20159;-43
2022/03/15 05:28:37;;;;;;;6.00;1.73;;;;;;;-0.69;47.27;101158.22;5055134;28;20132;-42
2022/03/15 05:31:05;;;;;;;11.73;1.77;;;;;;;-0.64;47.46;101154.16;5031738;28;20060;-41
2022/03/15 05:33:31;;;;;;;4.28;1.20;;;;;;;-0.53;47.30;101164.72;5028746;28;20060;-40
2022/03/15 05:35:57;;;;;;;5.15;2.33;;;;;;;-0.55;47.05;101143.38;5030848;28;20516;-41
2022/03/15 05:38:23;;;;;;;6.28;1.42;;;;;;;-0.33;47.38;101156.03;5032693;28;20057;-42
2022/03/15 05:40:49;;;;;;;9.23;1.83;;;;;;;-0.20;46.88;101164.97;5030561;28;20132;-41
2022/03/15 05:43:15;;;;;;;9.02;1.65;;;;;;;-0.09;46.82;101161.94;5028886;28;20423;-40
2022/03/15 05:45:41;;;;;;;4.40;1.55;;;;;;;0.05;46.88;101175.19;5014234;28;20513;-43
2022/03/15 05:48:07;;;;;;;2.50;1.25;;;;;;;0.26;46.59;101172.44;5030710;28;20037;-42
2022/03/15 05:50:33;;;;;;;8.35;2.28;;;;;;;0.61;45.91;101176.03;5022683;28;20042;-42
2022/03/15 05:53:04;;;;;;;3.20;1.15;;;;;;;1.07;45.27;101167.97;5012782;28;20044;-42
2022/03/15 05:55:36;;;;;;;6.25;2.10;;;;;;;1.63;44.23;101180.59;5017264;28;20037;-42
2022/03/15 05:58:03;;;;;;;5.82;1.58;;;;;;;2.54;42.83;101159.69;5023581;28;20611;-43
2022/03/15 06:00:29;;;;;;;5.57;1.38;;;;;;;3.70;40.62;101178.25;5031703;28;20056;-43
2022/03/15 06:02:55;;;;;;;4.22;1.20;;;;;;;4.63;38.97;101182.25;5030991;28;20420;-42
2022/03/15 06:05:21;;;;;;;4.45;1.33;;;;;;;5.24;37.51;101155.50;5032695;28;20045;-42
2022/03/15 06:07:49;;;;;;;8.65;2.47;;;;;;;6.31;36.27;101181.47;5031346;28;20048;-42
2022/03/15 06:10:17;;;;;;;3.95;2.20;;;;;;;7.15;34.13;101189.66;5028003;28;20072;-42
2022/03/15 06:12:44;;;;;;;6.60;1.60;;;;;;;8.01;33.31;101195.00;5014587;28;20032;-41
2022/03/15 06:15:10;;;;;;;3.90;1.50;;;;;;;8.53;32.16;101169.06;5031997;28;20045;-42
2022/03/15 06:18:06;;;;;;;8.15;2.10;;;;;;;9.32;31.07;101180.00;5006883;28;20042;-42
2022/03/15 06:20:33;;;;;;;3.83;1.58;;;;;;;9.97;29.73;101185.66;5022706;28;20049;-42
2022/03/15 06:23:00;;;;;;;3.90;1.48;;;;;;;10.63;28.88;101197.19;5045313;28;20043;-43
2022/03/15 06:25:28;;;;;;;3.40;1.48;;;;;;;11.22;28.00;101198.25;5050658;28;20110;-41
2022/03/15 06:27:54;;;;;;;4.00;1.55;;;;;;;11.56;27.35;101183.91;5023051;28;20486;-43
2022/03/15 06:30:21;;;;;;;6.22;1.60;;;;;;;12.09;26.46;101182.25;5024143;28;20182;-41
2022/03/15 06:32:47;;;;;;;3.45;1.70;;;;;;;12.64;26.20;101196.03;5031740;28;20044;-42
2022/03/15 06:35:13;;;;;;;4.75;1.65;;;;;;;13.13;25.39;101188.13;5032031;28;20045;-42
2022/03/15 06:37:44;;;;;;;3.58;1.70;;;;;;;13.78;24.77;101196.25;5023117;28;20124;-42
2022/03/15 06:40:11;;;;;;;8.18;1.67;;;;;;;14.25;24.02;101186.38;5012209;28;20046;-42
2022/03/15 06:42:38;;;;;;;10.02;2.35;;;;;;;14.80;23.58;101185.84;5016667;28;20484;-41
2022/03/15 06:45:07;;;;;;;10.27;3.60;;;;;;;15.37;22.99;101187.69;5032158;28;20045;-41
2022/03/15 06:47:34;;;;;;;9.73;1.52;;;;;;;15.94;22.58;101195.53;5021558;28;20433;-42
2022/03/15 06:50:00;;;;;;;9.07;1.92;;;;;;;16.37;21.80;101197.59;5030556;28;20060;-42
2022/03/15 06:52:25;;;;;;;11.65;2.70;;;;;;;16.66;22.01;101192.22;5030540;28;20030;-42
2022/03/15 06:54:51;;;;;;;13.57;2.22;;;;;;;17.22;21.05;101194.53;5030319;28;20095;-41
2022/03/15 06:57:21;;;;;;;10.35;2.42;;;;;;;17.53;20.91;101192.47;5028187;28;20049;-41
2022/03/15 06:59:47;;;;;;;6.15;1.80;;;;;;;17.86;20.07;101184.16;5015043;28;20045;-43
2022/03/15 07:02:31;;;;;;;5.20;1.58;;;;;;;17.83;19.92;101172.00;5027598;28;20041;-40
2022/03/15 07:04:57;;;;;;;4.97;2.60;;;;;;;18.17;19.82;101184.63;5029268;28;20124;-41
2022/03/15 07:07:23;;;;;;;4.05;1.80;;;;;;;18.26;19.32;101173.72;5028009;28;20124;-41
2022/03/15 07:09:49;;;;;;;3.97;1.88;;;;;;;18.65;19.13;101176.44;5030068;28;20523;-42
2022/03/15 07:12:15;;;;;;;7.22;1.75;;;;;;;18.96;18.74;101184.69;5028553;28;20037;-41
2022/03/15 07:14:43;;;;;;;7.13;1.60;;;;;;;19.19;18.37;101157.28;5030466;28;20041;-41
2022/03/15 07:17:09;;;;;;;8.00;2.00;;;;;;;19.61;18.12;101193.16;5030956;28;20037;-41
2022/03/15 07:19:34;;;;;;;8.20;1.85;;;;;;;19.84;17.77;101184.97;5028055;28;20045;-42
2022/03/15 07:22:00;;;;;;;5.40;1.77;;;;;;;19.70;17.69;101190.94;5028636;28;20064;-41
2022/03/15 07:24:26;;;;;;;5.78;1.52;;;;;;;19.92;17.57;101185.47;5029085;28;20429;-41
2022/03/15 07:26:52;;;;;;;6.85;2.10;;;;;;;20.45;16.84;101180.19;5010963;28;20033;-41
2022/03/15 07:29:18;;;;;;;6.43;1.60;;;;;;;20.71;16.49;101179.69;5023467;28;20103;-40
2022/03/15 07:31:44;;;;;;;6.28;2.78;;;;;;;20.88;16.71;101185.88;5024369;28;20464;-40
2022/03/15 07:34:10;;;;;;;3.95;1.90;;;;;;;21.04;16.37;101182.31;5026207;28;20055;-41
2022/03/15 07:36:35;;;;;;;8.20;2.47;;;;;;;21.53;15.96;101188.44;5029608;28;20045;-40
2022/03/15 07:39:04;;;;;;;6.60;2.08;;;;;;;21.73;16.02;101186.47;5028990;28;20438;-42
2022/03/15 07:41:30;;;;;;;9.27;2.57;;;;;;;21.84;15.75;101182.28;5033171;28;20455;-41
2022/03/15 07:43:56;;;;;;;5.53;2.35;;;;;;;21.74;15.58;101167.00;5033320;28;20380;-41
2022/03/15 07:46:22;;;;;;;29.30;4.70;;;;;;;21.64;15.55;101189.63;5015412;28;20517;-42
2022/03/15 07:48:47;;;;;;;3.95;1.90;;;;;;;21.47;15.58;101180.84;5034322;28;20043;-42
2022/03/15 07:51:13;;;;;;;4.72;1.85;;;;;;;21.93;15.35;101189.69;5029580;28;20076;-40
2022/03/15 07:53:39;;;;;;;11.55;2.20;;;;;;;22.24;15.17;101191.44;5030391;28;20151;-40
2022/03/15 07:56:05;;;;;;;4.80;1.80;;;;;;;22.56;14.96;101194.00;5027375;28;20567;-39
2022/03/15 07:58:31;;;;;;;10.30;2.40;;;;;;;22.50;15.01;101178.47;5026909;28;20444;-40
2022/03/15 08:00:58;;;;;;;5.70;1.80;;;;;;;21.92;14.89;101193.28;5029695;28;20068;-40
2022/03/15 08:03:24;;;;;;;6.10;2.10;;;;;;;21.73;15.12;101183.81;5033694;28;20049;-41
2022/03/15 08:05:51;;;;;;;8.02;2.10;;;;;;;21.99;14.89;101193.81;5045753;28;20042;-40
2022/03/15 08:08:17;;;;;;;7.18;2.25;;;;;;;22.05;14.97;101185.50;5032548;28;20571;-41
2022/03/15 08:10:43;;;;;;;3.10;2.00;;;;;;;21.50;14.91;101191.28;5036254;28;20045;-40
2022/03/15 08:13:10;;;;;;;6.60;2.30;;;;;;;21.57;15.19;101191.75;5029696;28;20124;-40
2022/03/15 08:15:36;;;;;;;4.20;1.70;;;;;;;21.98;15.13;101193.91;5029202;28;20041;-40
2022/03/15 08:18:03;;;;;;;4.60;1.83;;;;;;;22.27;14.82;101191.28;5029165;28;20564;-40
2022/03/15 08:21:03;;;;;;;11.75;2.63;;;;;;;22.32;14.62;101193.66;5028014;28;20044;-40
2022/03/15 08:23:23;;;;;;;5.32;2.75;;;;;;;22.39;14.62;101187.91;5020197;28;20045;-40
2022/03/15 08:25:48;;;;;;;11.07;2.55;;;;;;;22.61;14.55;101186.63;5030966;28;20049;-41
2022/03/15 08:28:14;;;;;;;9.20;2.08;;;;;;;22.71;14.32;101179.84;5029121;28;20045;-41
2022/03/15 08:30:40;;;;;;;11.07;2.20;;;;;;;23.04;14.04;101188.38;5029780;28;20052;-40
2022/03/15 08:33:05;;;;;;;5.68;2.17;;;;;;;23.09;13.89;101190.72;5010166;28;20542;-40
2022/03/15 08:35:31;;;;;;;9.68;1.75;;;;;;;22.97;13.88;101176.44;5037576;28;20041;-40
2022/03/15 08:37:57;;;;;;;12.35;1.90;;;;;;;22.95;13.77;101178.31;5034040;28;20608;-41
2022/03/15 08:40:24;;;;;;;6.40;1.90;;;;;;;22.87;13.77;101170.00;5025409;28;20050;-42
2022/03/15 08:42:54;;;;;;;5.03;2.05;;;;;;;22.67;13.88;101183.56;5027893;28;20118;-43
2022/03/15 08:45:20;;;;;;;5.90;2.08;;;;;;;22.59;13.92;101169.94;5027157;28;20493;-41
2022/03/15 08:47:46;;;;;;;5.80;2.50;;;;;;;22.85;13.99;101177.19;5024158;28;20049;-43
2022/03/15 08:50:12;;;;;;;8.68;3.10;;;;;;;23.11;13.85;101181.72;5009073;28;20037;-41
2022/03/15 08:52:38;;;;;;;2.63;1.67;;;;;;;23.29;13.68;101171.75;5020459;28;20416;-40
2022/03/15 08:55:04;;;;;;;4.20;1.60;;;;;;;23.60;13.63;101179.47;5010787;28;20049;-43
2022/03/15 08:57:30;;;;;;;3.03;1.50;;;;;;;23.37;13.55;101164.16;5027488;28;20144;-43
2022/03/15 08:59:58;;;;;;;8.93;1.83;;;;;;;23.05;13.40;101163.53;5029549;28;20096;-41
2022/03/15 09:02:23;;;;;;;6.20;2.00;;;;;;;23.12;13.73;101179.94;5029864;28;20042;-43
2022/03/15 09:04:49;;;;;;;3.22;1.90;;;;;;;23.18;13.78;101176.91;5029714;28;20564;-42
2022/03/15 09:07:15;;;;;;;4.13;2.25;;;;;;;23.17;13.79;101148.66;5028732;28;20079;-43
2022/03/15 09:09:41;;;;;;;4.10;1.60;;;;;;;23.10;13.65;101174.72;5012073;28;20045;-43
2022/03/15 09:12:07;;;;;;;2.45;1.60;;;;;;;23.08;13.61;101176.59;5030591;28;20047;-43
2022/03/15 09:14:32;;;;;;;8.27;3.60;;;;;;;22.88;13.67;101171.69;5029364;28;20384;-42
2022/03/15 09:16:58;;;;;;;7.47;1.58;;;;;;;22.83;13.73;101164.97;5012254;28;20038;-43
2022/03/15 09:19:25;;;;;;;7.32;1.92;;;;;;;22.98;13.56;101164.84;5012239;28;20048;-43
2022/03/15 09:21:51;;;;;;;6.18;1.92;;;;;;;23.13;13.45;101173.69;5017030;28;20037;-42
2022/03/15 09:24:17;;;;;;;8.50;2.40;;;;;;;23.20;13.38;101170.53;5013520;28;20064;-43
2022/03/15 09:26:43;;;;;;;2.67;1.60;;;;;;;23.47;13.28;101175.06;5020590;28;20037;-42
2022/03/15 09:29:10;;;;;;;4.93;2.38;;;;;;;23.60;13.12;101170.69;5019703;28;20045;-43
2022/03/15 09:31:37;;;;;;;3.80;1.77;;;;;;;23.72;13.05;101148.63;5028403;28;20044;-43
2022/03/15 09:34:02;;;;;;;6.47;2.20;;;;;;;23.94;13.13;101166.66;5032079;28;20120;-42
2022/03/15 09:36:28;;;;;;;2.83;1.52;;;;;;;23.69;13.03;101177.19;5032701;28;20040;-43
2022/03/15 09:38:55;;;;;;;6.90;1.95;;;;;;;23.43;12.95;101162.91;5033464;28;20124;-42
2022/03/15 09:41:25;;;;;;;5.78;1.77;;;;;;;23.34;13.13;101151.09;5031446;28;20033;-42
2022/03/15 09:43:53;;;;;;;3.28;1.50;;;;;;;23.60;13.18;101176.81;5031649;28;20053;-42
2022/03/15 09:46:21;;;;;;;2.80;1.70;;;;;;;23.75;13.17;101171.50;5031102;28;20068;-43
2022/03/15 09:48:51;;;;;;;4.55;1.42;;;;;;;24.12;13.06;101173.41;5042589;28;20045;-43
2022/03/15 09:51:18;;;;;;;4.53;1.35;;;;;;;24.29;12.75;101166.97;5032076;28;20045;-43
2022/03/15 09:53:46;;;;;;;2.28;1.40;;;;;;;24.45;12.64;101168.50;5041233;28;20135;-42
2022/03/15 09:56:14;;;;;;;;;;;;;;;24.52;12.44;101166.28;5027483;28;20041;-43
2022/03/15 09:58:40;;;;;;;2.13;1.50;;;;;;;24.53;12.63;101157.34;5032002;28;19921;-42
2022/03/15 10:01:05;;;;;;;6.03;1.70;;;;;;;24.70;12.45;101162.34;5033624;28;20048;-43
2022/03/15 10:03:31;;;;;;;2.70;1.45;;;;;;;25.00;12.40;101167.34;5032580;28;20041;-43
2022/03/15 10:05:57;;;;;;;4.70;1.33;;;;;;;25.08;12.07;101161.47;5041850;28;20142;-41
2022/03/15 10:08:22;;;;;;;2.65;1.60;;;;;;;25.00;12.34;101167.34;5012719;28;20072;-43
2022/03/15 10:10:52;;;;;;;3.53;1.38;;;;;;;24.97;12.04;101180.84;5040226;28;20073;-45
2022/03/15 10:13:19;;;;;;;4.13;1.42;;;;;;;24.98;11.89;101176.38;5012623;28;20465;-42
2022/03/15 10:15:56;;;;;;;4.50;1.30;;;;;;;25.04;11.75;101171.50;5044222;28;20141;-43
2022/03/15 10:18:22;;;;;;;5.15;1.67;;;;;;;25.11;11.56;101161.25;5023882;28;20092;-45
2022/03/15 10:20:49;;;;;;;4.07;2.22;;;;;;;25.15;11.53;101165.41;5031445;28;20528;-44
2022/03/15 10:23:16;;;;;;;5.55;2.33;;;;;;;25.08;11.58;101166.78;5031787;28;20037;-45
2022/03/15 10:25:46;;;;;;;4.70;1.60;;;;;;;24.83;11.65;101170.31;5026117;28;20480;-44
2022/03/15 10:28:13;;;;;;;3.63;1.67;;;;;;;24.83;11.88;101163.19;5030826;28;20047;-51
2022/03/15 10:30:39;;;;;;;5.15;2.50;;;;;;;25.01;11.70;101169.06;5031414;28;20497;-43
2022/03/15 10:33:05;;;;;;;2.75;1.60;;;;;;;25.26;11.32;101155.69;5030480;28;20486;-45
2022/03/15 10:35:37;;;;;;;4.15;1.42;;;;;;;25.08;11.37;101156.16;5012804;28;20050;-44
2022/03/15 10:38:04;;;;;;;1.25;1.10;;;;;;;24.69;11.20;101143.81;5010573;28;20042;-45
2022/03/15 10:40:45;;;;;;;4.50;1.20;;;;;;;24.57;11.27;101150.84;5013815;28;20152;-43
2022/03/15 10:43:15;;;;;;;1.33;1.10;;;;;;;24.34;11.52;101148.91;5030881;28;20500;-45
2022/03/15 10:45:55;;;;;;;1.35;1.20;;;;;;;24.39;11.76;101155.59;5031743;28;20588;-45
2022/03/15 10:48:32;;;;;;;1.77;1.20;;;;;;;24.49;11.61;101151.34;5028289;28;20045;-43
2022/03/15 10:51:06;;;;;;;3.17;1.50;;;;;;;24.47;11.42;101147.13;5029745;28;20539;-43
2022/03/15 10:53:38;;;;;;;1.95;1.50;;;;;;;24.49;11.40;101143.38;5030556;28;20046;-43
2022/03/15 10:56:12;;;;;;;2.70;1.67;;;;;;;24.18;11.64;101130.47;5022405;28;20045;-44
2022/03/15 10:59:14;;;;;;;4.10;1.48;;;;;;;24.20;11.62;101141.88;5012017;28;20204;-44
2022/03/15 11:01:41;;;;;;;3.85;1.70;;;;;;;24.17;11.67;101130.59;5030245;28;20099;-45
2022/03/15 11:04:11;;;;;;;3.55;1.90;;;;;;;24.18;11.80;101138.47;5031300;28;20025;-44
2022/03/15 11:06:38;;;;;;;1.88;1.55;;;;;;;24.13;11.67;101139.72;5031275;28;20056;-44
2022/03/15 11:09:26;;;;;;;5.30;1.90;;;;;;;24.08;11.88;101134.69;5029343;28;20046;-43
2022/03/15 11:12:07;;;;;;;5.15;2.03;;;;;;;23.96;11.80;101147.00;5028870;28;20505;-45
2022/03/15 11:14:51;;;;;;;3.55;2.22;;;;;;;23.69;11.82;101146.19;5030198;28;20048;-51
2022/03/15 11:17:19;;;;;;;4.68;1.98;;;;;;;23.55;12.16;101138.28;5029545;28;20111;-44
2022/03/15 11:19:50;;;;;;;4.25;1.80;;;;;;;23.55;11.76;101138.28;5022690;28;20033;-49
2022/03/15 11:22:23;;;;;;;5.45;2.20;;;;;;;23.44;12.05;101138.94;5028537;28;20471;-48
2022/03/15 11:25:17;;;;;;;4.32;2.13;;;;;;;23.33;12.35;101132.59;5043802;28;20040;-45
2022/03/15 11:27:44;;;;;;;7.30;2.25;;;;;;;23.45;12.23;101139.75;4995431;28;20056;-45